Time;durP1;ratioP1;P1;durP2;ratioP2;P2;SDS_P1;SDS_P2;PMS_P1;PMS_P2;Temp;Humidity;BMP_temperature;BMP_pressure;BME280_temperature;BME280_humidity;BME280_pressure;Samples;Min_cycle;Max_cycle;Signal;HPM_P1;HPM_P2
2022/07/05 00:02:25;;;;;;;17.63;14.52;;;20.00;99.90;;;20.35;100.00;99223.41;5039676;27;122138;-76
2022/07/05 00:04:53;;;;;;;15.70;14.02;;;20.00;99.90;;;20.41;100.00;99219.91;5042798;27;121954;-76
2022/07/05 00:07:22;;;;;;;16.45;13.80;;;19.90;99.90;;;20.40;100.00;99217.53;5025692;27;128798;-78
2022/07/05 00:09:54;;;;;;;18.30;13.30;;;19.90;99.90;;;20.38;100.00;99217.94;5042554;27;128461;-78
2022/07/05 00:12:25;;;;;;;16.83;15.13;;;19.80;99.90;;;20.31;100.00;99220.63;5041090;27;119706;-77
2022/07/05 00:14:54;;;;;;;16.13;13.57;;;19.80;99.90;;;20.30;100.00;99213.53;5042322;27;119504;-76
2022/07/05 00:17:24;;;;;;;18.05;14.43;;;19.70;99.90;;;20.31;100.00;99204.09;5025417;27;129582;-75
2022/07/05 00:19:53;;;;;;;16.17;14.48;;;19.60;99.90;;;20.23;100.00;99219.00;5042775;27;129128;-75
2022/07/05 00:22:21;;;;;;;16.77;13.32;;;19.60;99.90;;;20.17;100.00;99220.53;5040873;27;119812;-76
2022/07/05 00:24:50;;;;;;;17.73;13.32;;;19.60;99.90;;;20.15;100.00;99217.34;5040699;27;119620;-76
2022/07/05 00:27:19;;;;;;;15.95;13.40;;;19.50;99.90;;;20.13;100.00;99223.25;5039423;27;130070;-75
2022/07/05 00:29:47;;;;;;;18.42;13.70;;;19.40;99.90;;;20.14;100.00;99224.84;5040589;27;129969;-76
2022/07/05 00:32:16;;;;;;;19.75;14.00;;;19.40;99.90;;;20.06;100.00;99215.72;5042957;27;119456;-77
2022/07/05 00:34:46;;;;;;;14.95;12.15;;;19.40;99.90;;;20.04;100.00;99223.59;5025854;27;118527;-75
2022/07/05 00:37:15;;;;;;;16.90;12.52;;;19.50;99.90;;;20.01;100.00;99218.84;5040548;27;129953;-75
2022/07/05 00:39:44;;;;;;;14.43;12.18;;;19.40;99.90;;;19.93;100.00;99217.22;5040192;27;129618;-76
2022/07/05 00:42:12;;;;;;;17.98;12.77;;;19.30;99.90;;;19.92;100.00;99216.41;5042483;27;119601;-75
2022/07/05 00:44:42;;;;;;;15.88;13.02;;;19.30;99.90;;;19.90;100.00;99218.75;5041083;27;119552;-75
2022/07/05 00:47:13;;;;;;;15.15;12.68;;;19.20;99.90;;;19.90;100.00;99215.22;5043448;27;130224;-76
2022/07/05 00:49:43;;;;;;;15.55;12.52;;;19.20;99.90;;;19.90;100.00;99220.75;5041439;27;129467;-74
2022/07/05 00:52:14;;;;;;;13.85;11.90;;;19.20;99.90;;;19.92;100.00;99221.91;5043047;27;122292;-76
2022/07/05 00:54:43;;;;;;;14.43;12.90;;;19.10;99.90;;;19.85;100.00;99215.56;5044658;27;122130;-75
2022/07/05 00:57:12;;;;;;;16.25;12.73;;;19.10;99.90;;;19.75;100.00;99212.31;5031970;27;129232;-76
2022/07/05 00:59:40;;;;;;;13.30;11.88;;;19.00;99.90;;;19.70;100.00;99204.41;5050697;27;128563;-76
2022/07/05 01:02:09;;;;;;;14.52;12.38;;;19.00;99.90;;;19.71;100.00;99206.00;5048717;27;119594;-75
2022/07/05 01:04:37;;;;;;;12.13;10.35;;;18.90;99.90;;;19.71;100.00;99205.19;5042135;27;119071;-75
2022/07/05 01:07:06;;;;;;;14.18;11.95;;;18.90;99.90;;;19.70;100.00;99204.41;5042295;27;129848;-74
2022/07/05 01:09:36;;;;;;;14.77;11.70;;;18.90;99.90;;;19.68;100.00;99205.94;5042640;27;129167;-75
2022/07/05 01:12:05;;;;;;;15.40;12.07;;;18.90;99.90;;;19.66;100.00;99211.06;5039080;27;119485;-75
2022/07/05 01:14:34;;;;;;;14.55;12.68;;;18.90;99.90;;;19.66;100.00;99209.09;5042234;27;118980;-74
2022/07/05 01:17:04;;;;;;;15.23;11.68;;;18.90;99.90;;;19.63;100.00;99215.34;5038657;27;130210;-75
2022/07/05 01:19:33;;;;;;;17.73;12.70;;;18.90;99.90;;;19.59;100.00;99209.03;5024832;27;128348;-75
2022/07/05 01:22:04;;;;;;;22.65;12.88;;;18.80;99.90;;;19.57;100.00;99205.84;5040159;27;119754;-74
2022/07/05 01:24:34;;;;;;;32.25;15.57;;;18.80;99.90;;;19.49;100.00;99209.72;5042200;27;118684;-75
2022/07/05 01:27:03;;;;;;;24.10;13.07;;;18.80;99.90;;;19.45;100.00;99219.91;5043018;27;130721;-74
2022/07/05 01:29:32;;;;;;;22.50;13.57;;;18.80;99.90;;;19.42;100.00;99215.94;5043314;27;129312;-74
2022/07/05 01:32:00;;;;;;;17.00;12.73;;;18.90;99.90;;;19.40;100.00;99208.06;5043722;27;119661;-74
2022/07/05 01:34:29;;;;;;;16.27;11.75;;;18.90;99.90;;;19.49;100.00;99215.22;5042564;27;119399;-73
2022/07/05 01:36:57;;;;;;;15.45;11.98;;;19.00;99.90;;;19.53;100.00;99202.28;5042075;27;128995;-75
2022/07/05 01:39:26;;;;;;;15.02;13.27;;;19.00;99.90;;;19.61;100.00;99206.69;5042750;27;129720;-75
2022/07/05 01:41:56;;;;;;;16.83;12.25;;;19.20;99.90;;;19.67;100.00;99210.69;5027450;27;120995;-75
2022/07/05 01:44:25;;;;;;;14.43;11.60;;;19.20;99.90;;;19.69;100.00;99213.81;5045173;27;121519;-76
2022/07/05 01:47:00;;;;;;;15.13;11.93;;;19.20;99.90;;;19.67;100.00;99210.69;5042699;27;129803;-76
2022/07/05 01:49:31;;;;;;;14.32;11.95;;;19.10;99.90;;;19.59;100.00;99211.78;5041498;27;129951;-75
2022/07/05 01:52:08;;;;;;;14.50;13.00;;;18.90;99.90;;;19.51;100.00;99215.63;5041968;27;119556;-76
2022/07/05 01:54:37;;;;;;;14.63;12.50;;;18.80;99.90;;;19.46;100.00;99215.97;5042114;27;118486;-76
2022/07/05 01:57:08;;;;;;;15.52;12.98;;;18.60;99.90;;;19.40;100.00;99218.31;5044936;27;129628;-76
2022/07/05 01:59:38;;;;;;;14.05;12.52;;;18.50;99.90;;;19.28;100.00;99216.59;5041896;27;129793;-75
2022/07/05 02:02:08;;;;;;;15.98;12.85;;;18.50;99.90;;;19.27;100.00;99226.00;5043332;27;119610;-75
2022/07/05 02:04:38;;;;;;;14.10;12.43;;;18.50;99.90;;;19.26;100.00;99218.94;5045014;27;118278;-73
2022/07/05 02:07:11;;;;;;;16.92;13.73;;;18.50;99.90;;;19.25;100.00;99211.06;5040033;27;129951;-76
2022/07/05 02:09:41;;;;;;;16.00;13.52;;;18.50;99.90;;;19.23;100.00;99214.19;5044764;27;129478;-74
2022/07/05 02:12:11;;;;;;;15.88;13.45;;;18.60;99.90;;;19.27;100.00;99214.22;5041653;27;120737;-74
2022/07/05 02:14:40;;;;;;;14.77;12.57;;;18.60;99.90;;;19.36;100.00;99223.75;5042850;27;119450;-76
2022/07/05 02:17:14;;;;;;;17.27;13.52;;;18.60;99.90;;;19.46;100.00;99215.97;5041202;27;129927;-75
2022/07/05 02:19:44;;;;;;;16.50;12.82;;;18.60;99.90;;;19.54;100.00;99217.63;5027482;27;128777;-76
2022/07/05 02:22:13;;;;;;;15.32;13.40;;;18.60;99.90;;;19.49;100.00;99224.25;5045098;27;120026;-74
2022/07/05 02:24:41;;;;;;;16.65;13.60;;;18.60;99.90;;;19.40;100.00;99224.59;5041764;27;119938;-76
2022/07/05 02:27:29;;;;;;;16.55;13.20;;;18.60;99.90;;;19.39;100.00;99231.25;5044389;27;130306;-75
2022/07/05 02:29:58;;;;;;;16.48;13.77;;;18.60;99.90;;;19.40;100.00;99224.59;5040957;27;129428;-75
2022/07/05 02:32:37;;;;;;;14.73;13.05;;;18.60;99.90;;;19.40;100.00;99234.81;5026280;27;120472;-74
2022/07/05 02:35:09;;;;;;;14.93;13.32;;;18.60;99.90;;;19.45;100.00;99225.41;5027608;27;121453;-76
2022/07/05 02:37:39;;;;;;;16.25;13.57;;;18.60;99.90;;;19.35;100.00;99222.19;5040238;27;130399;-77
2022/07/05 02:40:11;;;;;;;15.20;12.70;;;18.60;99.90;;;19.24;100.00;99225.97;5045754;27;128551;-76
2022/07/05 02:42:45;;;;;;;16.75;13.75;;;18.50;99.90;;;19.09;100.00;99225.81;5062675;27;119784;-76
2022/07/05 02:45:16;;;;;;;15.43;12.77;;;18.40;99.90;;;19.03;100.00;99225.34;5064790;27;119379;-76
2022/07/05 02:47:47;;;;;;;14.95;13.27;;;18.40;99.90;;;19.11;100.00;99236.44;5060930;27;130160;-76
2022/07/05 02:50:16;;;;;;;15.98;13.32;;;18.50;99.90;;;19.20;100.00;99234.19;5064977;27;129038;-77
2022/07/05 02:52:50;;;;;;;18.52;12.90;;;18.60;99.90;;;19.36;100.00;99232.00;5061407;27;120102;-77
2022/07/05 02:55:20;;;;;;;15.75;13.48;;;18.70;99.90;;;19.51;100.00;99240.38;5061377;27;119484;-77
2022/07/05 02:57:50;;;;;;;16.00;13.32;;;18.70;99.90;;;19.58;100.00;99245.97;5063127;27;128793;-76
2022/07/05 03:00:21;;;;;;;16.17;13.13;;;18.80;99.90;;;19.67;100.00;99243.72;5061981;27;129392;-76
2022/07/05 03:02:50;;;;;;;15.30;12.82;;;18.90;99.90;;;19.81;100.00;99245.03;5047006;27;118651;-75
2022/07/05 03:05:19;;;;;;;14.65;13.10;;;19.00;99.90;;;20.01;100.00;99249.16;5064594;27;118736;-77
2022/07/05 03:07:58;;;;;;;14.43;12.10;;;19.10;99.90;;;20.61;100.00;99249.94;5060835;27;130240;-77
2022/07/05 03:10:28;;;;;;;12.02;10.27;;;19.50;99.90;;;21.79;100.00;99249.56;5063879;27;129147;-76
2022/07/05 03:13:00;;;;;;;12.77;9.27;;;20.20;99.90;;;22.93;99.69;99247.84;5061522;27;119652;-77
2022/07/05 03:15:28;;;;;;;13.93;9.43;;;21.00;99.90;;;24.01;90.19;99252.78;5060318;27;120306;-77
2022/07/05 03:17:57;;;;;;;9.90;8.27;;;21.50;1.00;;;25.21;83.54;99255.09;5052195;27;129404;-77
2022/07/05 03:20:28;;;;;;;9.40;8.30;;;22.10;1.00;;;26.39;75.10;99260.06;5040123;27;129977;-76
2022/07/05 03:22:57;;;;;;;9.95;7.53;;;22.40;1.00;;;27.16;70.57;99267.34;5042624;27;121779;-77
2022/07/05 03:25:32;;;;;;;13.48;7.80;;;22.40;1.00;;;27.89;66.83;99272.88;5040483;27;122049;-76
2022/07/05 03:28:05;;;;;;;8.38;7.57;;;22.70;1.00;;;28.10;65.31;99270.81;5026535;27;129474;-77
2022/07/05 03:30:34;;;;;;;11.35;8.45;;;22.70;1.00;;;27.53;66.55;99268.13;5043380;27;130427;-77
2022/07/05 03:33:04;;;;;;;11.65;8.55;;;22.50;1.00;;;26.86;68.62;99271.13;5040538;27;119434;-76
2022/07/05 03:35:35;;;;;;;9.85;8.85;;;21.80;1.00;;;26.31;70.78;99270.53;5040749;27;119235;-76
2022/07/05 03:38:04;;;;;;;10.32;8.60;;;21.40;1.00;;;25.67;73.91;99278.69;5057218;27;129426;-76
2022/07/05 03:40:33;;;;;;;11.10;9.77;;;21.20;1.00;;;25.19;76.75;99271.38;5057307;27;129408;-77
2022/07/05 03:43:02;;;;;;;10.80;9.40;;;21.20;1.00;;;24.80;78.87;99283.75;5043614;27;119450;-78
2022/07/05 03:45:36;;;;;;;11.30;9.90;;;21.10;1.00;;;24.36;81.38;99283.38;5040711;27;120132;-79
2022/07/05 03:48:06;;;;;;;10.85;9.20;;;21.20;1.00;;;23.87;85.08;99275.03;5041667;27;128847;-78
2022/07/05 03:50:36;;;;;;;12.43;10.48;;;21.10;1.00;;;23.69;85.96;99275.94;5039250;27;130222;-78
2022/07/05 03:54:26;;;;;;;11.65;10.45;;;20.90;1.00;;;23.46;87.63;99284.00;5063345;27;102547;-76
2022/07/05 03:56:55;;;;;;;11.40;9.73;;;21.10;1.00;;;23.49;87.86;99285.97;5036857;27;116233;-76
2022/07/05 03:59:24;;;;;;;12.93;10.95;;;21.20;1.00;;;23.38;88.67;99290.78;5040092;27;129410;-76
2022/07/05 04:01:53;;;;;;;11.02;9.90;;;21.20;1.00;;;23.01;91.38;99286.56;5053368;27;130626;-75
2022/07/05 04:04:22;;;;;;;10.40;9.32;;;21.00;1.00;;;23.09;90.42;99288.94;5039754;27;118457;-76
2022/07/05 04:06:51;;;;;;;12.00;9.52;;;21.10;1.00;;;23.11;88.44;99299.59;5038276;27;113341;-75
2022/07/05 04:09:20;;;;;;;12.95;9.82;;;20.90;1.00;;;23.03;88.82;99287.75;5019929;28;129388;-73
2022/07/05 04:11:50;;;;;;;11.95;9.43;;;20.90;1.00;;;23.06;89.48;99294.44;5049084;27;130553;-73
2022/07/05 04:14:19;;;;;;;10.70;9.15;;;20.90;1.00;;;23.10;89.30;99300.78;5016458;28;118696;-76
2022/07/05 04:16:48;;;;;;;12.63;8.70;;;21.20;1.00;;;23.17;88.29;99300.75;5016238;28;113609;-76
2022/07/05 04:19:17;;;;;;;11.00;8.63;;;21.40;1.00;;;22.58;88.78;99299.31;5019775;28;129776;-75
2022/07/05 04:21:46;;;;;;;11.40;8.95;;;21.10;1.00;;;22.12;92.93;99300.09;5016215;28;129405;-75
2022/07/05 04:24:14;;;;;;;10.55;9.45;;;20.90;1.00;;;22.04;93.84;99298.53;5036864;27;117843;-73
2022/07/05 04:26:43;;;;;;;8.88;7.97;;;21.00;1.00;;;22.00;93.53;99303.25;5016910;28;114079;-76
2022/07/05 04:29:13;;;;;;;9.57;7.72;;;21.00;1.00;;;22.04;91.36;99309.59;5037021;27;129542;-74
2022/07/05 04:31:42;;;;;;;9.98;7.05;;;21.10;1.00;;;21.87;89.95;99300.88;5017664;28;129725;-77
2022/07/05 04:34:11;;;;;;;9.07;6.55;;;21.10;1.00;;;21.93;91.01;99303.25;5017667;28;119326;-77
2022/07/05 04:36:43;;;;;;;8.73;6.43;;;21.10;1.00;;;21.93;90.06;99308.78;5016565;28;113677;-73
2022/07/05 04:39:12;;;;;;;9.30;6.82;;;21.20;1.00;;;22.00;90.49;99304.06;5053174;27;129645;-74
2022/07/05 04:41:47;;;;;;;7.83;6.83;;;21.30;1.00;;;22.52;87.84;99300.13;5049699;27;130017;-73
2022/07/05 04:44:17;;;;;;;9.55;6.20;;;21.50;1.00;;;22.81;83.53;99311.91;5002863;28;118216;-73
2022/07/05 04:46:45;;;;;;;6.57;5.38;;;21.40;1.00;;;23.00;83.21;99313.44;5050326;27;113928;-74
2022/07/05 04:49:14;;;;;;;10.05;5.47;;;21.50;1.00;;;23.14;82.57;99318.16;5015767;28;130300;-71
2022/07/05 04:51:43;;;;;;;10.57;5.85;;;21.70;1.00;;;23.33;80.95;99312.16;5017225;28;130225;-75
2022/07/05 04:54:11;;;;;;;7.57;5.07;;;21.70;99.90;;;23.37;80.20;99312.13;5019270;28;118432;-73
2022/07/05 04:56:40;;;;;;;7.82;5.82;;;21.70;99.90;;;23.26;79.84;99312.16;5017609;28;113599;-77
2022/07/05 04:59:08;;;;;;;8.10;5.40;;;21.60;99.90;;;23.08;80.35;99323.31;5017042;28;130076;-72
2022/07/05 05:01:38;;;;;;;10.90;5.80;;;21.70;99.90;;;22.58;84.10;99315.13;5018545;28;130093;-71
2022/07/05 05:04:07;;;;;;;12.70;6.03;;;21.50;99.90;;;22.89;82.87;99310.72;5012841;28;119605;-78
2022/07/05 05:06:35;;;;;;;7.55;5.20;;;21.80;99.90;;;23.23;81.39;99321.28;5004193;28;114027;-68
2022/07/05 05:09:04;;;;;;;7.15;5.75;;;22.00;99.90;;;23.53;79.83;99317.19;5003532;28;130626;-74
2022/07/05 05:11:33;;;;;;;7.03;5.13;;;22.10;99.90;;;23.77;79.38;99320.22;5005467;28;129222;-76
2022/07/05 05:14:01;;;;;;;7.70;4.80;;;22.30;99.90;;;23.97;76.82;99318.53;5006014;28;118395;-72
2022/07/05 05:16:30;;;;;;;9.48;5.32;;;22.30;99.90;;;24.18;75.86;99319.56;5003800;28;114331;-76
2022/07/05 05:19:00;;;;;;;8.18;5.05;;;22.40;99.90;;;24.31;75.50;99328.97;5005033;28;129610;-76
2022/07/05 05:21:29;;;;;;;6.78;5.60;;;22.50;99.90;;;23.48;79.01;99314.84;5003291;28;129548;-74
2022/07/05 05:23:58;;;;;;;7.70;4.85;;;22.20;99.90;;;23.56;79.41;99319.16;5003788;28;118757;-73
2022/07/05 05:26:26;;;;;;;8.15;5.10;;;22.40;99.90;;;23.52;77.78;99312.84;5003884;28;113358;-75
2022/07/05 05:28:55;;;;;;;6.50;4.30;;;22.40;99.90;;;23.23;78.83;99318.50;5002948;28;129792;-76
2022/07/05 05:31:24;;;;;;;8.05;4.85;;;22.10;99.90;;;23.27;79.24;99324.81;5005559;28;130558;-75
2022/07/05 05:33:52;;;;;;;8.43;5.10;;;22.30;99.90;;;23.13;80.53;99322.91;5038869;27;118740;-77
2022/07/05 05:36:22;;;;;;;8.25;4.97;;;22.20;99.90;;;23.26;80.45;99317.69;5023850;28;113874;-75
2022/07/05 05:38:51;;;;;;;6.70;5.07;;;22.30;99.90;;;23.47;79.56;99313.28;5023311;28;129896;-73
2022/07/05 05:41:21;;;;;;;8.43;5.00;;;22.50;99.90;;;23.42;78.75;99313.69;5022766;28;129760;-74
2022/07/05 05:43:49;;;;;;;8.38;4.80;;;22.60;99.90;;;23.72;76.12;99320.63;5023267;28;118824;-74
2022/07/05 05:46:17;;;;;;;7.18;4.13;;;22.70;99.90;;;23.36;75.83;99323.59;5023343;28;113898;-75
2022/07/05 05:48:46;;;;;;;6.85;4.20;;;22.60;99.90;;;23.45;72.98;99323.94;5023109;28;130250;-71
2022/07/05 05:51:14;;;;;;;9.30;3.95;;;22.70;99.90;;;23.25;73.36;99321.69;5019506;27;129501;-74
2022/07/05 05:53:45;;;;;;;6.07;4.00;;;22.50;99.90;;;23.31;71.84;99328.38;5012535;27;118593;-72
2022/07/05 05:56:14;;;;;;;7.05;3.58;;;22.50;99.90;;;23.38;69.38;99329.53;5013323;27;112749;-74
2022/07/05 05:58:42;;;;;;;5.50;3.25;;;22.50;99.90;;;23.16;70.50;99337.94;5011983;27;129878;-69
2022/07/05 06:01:11;;;;;;;6.80;3.97;;;22.30;99.90;;;23.15;71.66;99344.63;5006840;27;128787;-75
2022/07/05 06:03:40;;;;;;;6.10;3.70;;;22.40;99.90;;;23.24;69.02;99342.25;5003198;28;119000;-72
2022/07/05 06:06:08;;;;;;;9.07;4.07;;;22.40;99.90;;;22.98;71.90;99349.81;5021470;27;112836;-72
2022/07/05 06:08:37;;;;;;;6.78;4.32;;;22.30;99.90;;;23.19;69.39;99334.34;5001537;27;130386;-74
2022/07/05 06:11:07;;;;;;;5.00;3.28;;;22.50;99.90;;;23.18;66.88;99345.81;5002646;28;129562;-68
2022/07/05 06:13:36;;;;;;;5.13;3.65;;;22.50;99.90;;;23.52;66.82;99337.78;5004505;28;118555;-80
2022/07/05 06:16:06;;;;;;;5.10;3.50;;;22.80;99.90;;;23.81;67.37;99337.59;5004099;28;112246;-74
2022/07/05 06:18:35;;;;;;;5.60;3.53;;;22.90;99.90;;;23.89;65.71;99341.94;5002545;28;130375;-72
2022/07/05 06:21:04;;;;;;;6.28;3.60;;;22.70;99.90;;;23.80;66.36;99336.81;5002477;28;129800;-74
2022/07/05 06:23:32;;;;;;;5.63;3.30;;;22.90;99.90;;;23.64;65.10;99334.53;5002839;28;119267;-73
2022/07/05 06:26:01;;;;;;;6.13;3.33;;;22.80;99.90;;;23.57;62.17;99339.34;5003054;28;114043;-77
2022/07/05 06:28:32;;;;;;;5.43;2.90;;;22.80;99.90;;;23.62;61.97;99336.94;5002150;28;130766;-74
2022/07/05 06:31:00;;;;;;;5.03;3.35;;;22.90;99.90;;;23.79;62.59;99329.69;5002357;28;130047;-75
2022/07/05 06:33:29;;;;;;;4.68;3.00;;;22.90;99.90;;;24.09;61.34;99335.84;5002571;28;119581;-79
2022/07/05 06:35:57;;;;;;;5.90;3.35;;;23.00;99.90;;;24.02;60.32;99337.50;5002789;28;113921;-72
2022/07/05 06:38:26;;;;;;;5.72;2.97;;;23.10;99.90;;;24.04;59.42;99340.66;5002163;28;130313;-75
2022/07/05 06:40:56;;;;;;;4.32;2.92;;;23.00;99.90;;;24.02;60.94;99340.25;5002029;28;130129;-75
2022/07/05 06:43:25;;;;;;;5.72;3.00;;;23.20;99.90;;;24.22;58.98;99346.06;5002278;28;119458;-76
2022/07/05 06:46:06;;;;;;;5.72;2.80;;;23.10;99.90;;;24.35;58.41;99338.03;5004936;28;113208;-74
2022/07/05 06:48:35;;;;;;;5.43;2.75;;;23.30;99.90;;;24.36;57.22;99345.16;5002392;28;130282;-74
2022/07/05 06:51:03;;;;;;;6.40;3.20;;;23.30;99.90;;;24.79;55.36;99354.31;5004030;28;129597;-76
2022/07/05 06:53:32;;;;;;;11.00;2.90;;;23.50;99.90;;;25.20;54.91;99351.47;5004373;28;120012;-73
2022/07/05 06:56:00;;;;;;;4.43;3.22;;;23.70;99.90;;;25.02;55.42;99351.69;5002559;28;113542;-71
2022/07/05 06:58:32;;;;;;;4.60;2.90;;;23.70;99.90;;;24.92;56.92;99358.16;5002232;28;130090;-74
2022/07/05 07:01:00;;;;;;;7.43;3.00;;;23.70;99.90;;;25.00;56.36;99351.31;5002241;28;129410;-75
2022/07/05 07:03:30;;;;;;;4.07;3.20;;;23.90;99.90;;;24.82;57.66;99353.47;5004503;28;117800;-72
2022/07/05 07:05:59;;;;;;;5.13;3.00;;;23.80;99.90;;;25.16;56.30;99353.50;5002689;28;113560;-74
2022/07/05 07:11:14;;;;;;;3.80;2.50;;;23.70;99.90;;;24.80;54.22;99361.44;5003521;28;129694;-74
2022/07/05 07:13:42;;;;;;;4.57;2.35;;;23.80;99.90;;;24.59;52.41;99363.22;5004285;28;117393;-73
2022/07/05 07:16:11;;;;;;;3.50;2.33;;;23.80;99.90;;;24.86;52.73;99368.13;5002966;28;113595;-73
2022/07/05 07:18:41;;;;;;;4.28;2.15;;;24.00;99.90;;;25.19;52.17;99365.78;5002539;28;130150;-75
2022/07/05 07:21:09;;;;;;;6.47;2.53;;;24.10;99.90;;;25.19;53.54;99360.22;5002238;28;129481;-75
2022/07/05 07:23:38;;;;;;;3.92;2.35;;;24.10;99.90;;;25.22;52.46;99353.84;5002621;28;118915;-73
2022/07/05 07:26:06;;;;;;;4.13;2.50;;;24.20;99.90;;;24.87;52.76;99355.81;5002605;28;114298;-81
2022/07/05 07:28:35;;;;;;;5.45;2.20;;;24.00;99.90;;;25.02;51.57;99360.00;5001724;28;130929;-75
2022/07/05 07:31:03;;;;;;;4.63;2.50;;;24.10;99.90;;;25.52;51.28;99357.88;5001590;28;129579;-75
2022/07/05 07:33:32;;;;;;;3.97;2.00;;;24.20;99.90;;;25.06;52.70;99357.97;5002314;28;119349;-74
2022/07/05 07:36:03;;;;;;;5.30;2.47;;;24.10;99.90;;;25.51;51.13;99353.50;5002302;28;113814;-74
2022/07/05 07:38:31;;;;;;;4.00;2.45;;;24.50;99.90;;;25.86;51.99;99345.91;5003625;28;129114;-74
2022/07/05 07:41:01;;;;;;;4.35;2.55;;;24.70;99.90;;;25.51;48.85;99354.31;5001384;28;129594;-75
2022/07/05 07:43:29;;;;;;;3.22;2.25;;;24.40;99.90;;;25.73;51.40;99356.81;5002288;28;118588;-75
2022/07/05 07:45:58;;;;;;;4.53;2.50;;;24.60;99.90;;;25.68;51.62;99355.28;5002217;28;113450;-73
2022/07/05 07:48:28;;;;;;;4.20;2.20;;;24.70;99.90;;;25.80;49.08;99354.72;5001821;28;129912;-74
2022/07/05 07:50:57;;;;;;;4.78;2.15;;;24.80;99.90;;;25.68;49.70;99352.50;5001508;28;129421;-73
2022/07/05 07:53:27;;;;;;;3.90;2.20;;;24.60;99.90;;;25.69;49.56;99344.94;5003467;28;118943;-71
2022/07/05 07:55:56;;;;;;;4.28;2.25;;;24.70;99.90;;;26.13;49.57;99349.50;5001439;28;113764;-75
2022/07/05 07:58:24;;;;;;;4.72;2.45;;;24.90;99.90;;;25.98;50.41;99354.47;5018910;28;129361;-75
2022/07/05 08:00:53;;;;;;;4.15;2.22;;;25.00;99.90;;;26.47;50.39;99354.09;5000775;28;129652;-74
2022/07/05 08:03:21;;;;;;;5.10;2.25;;;24.80;99.90;;;26.59;48.80;99349.13;4987153;28;117467;-77
2022/07/05 08:05:49;;;;;;;4.53;2.75;;;24.80;99.90;;;26.58;48.68;99345.56;5001716;28;115190;-75
2022/07/05 08:08:18;;;;;;;4.00;2.35;;;25.00;99.90;;;26.12;50.00;99347.91;5000781;28;130073;-76
2022/07/05 08:10:48;;;;;;;3.83;2.60;;;24.80;99.90;;;26.12;50.89;99352.69;5000850;28;129275;-73
2022/07/05 08:13:16;;;;;;;3.90;2.40;;;24.60;99.90;;;26.29;49.63;99346.06;5003182;28;118354;-72
2022/07/05 08:15:44;;;;;;;5.45;2.28;;;24.80;99.90;;;26.08;51.06;99347.16;5003075;28;114723;-74
2022/07/05 08:23:45;;;;;;;3.60;2.10;;;25.00;99.90;;;26.04;47.32;99354.78;5003735;28;118920;-74
2022/07/05 08:26:14;;;;;;;4.18;2.28;;;24.80;99.90;;;26.66;47.45;99354.59;5004287;28;114864;-75
2022/07/05 08:28:43;;;;;;;4.10;2.03;;;25.10;99.90;;;27.10;45.96;99352.59;5006325;28;130638;-75
2022/07/05 08:31:12;;;;;;;3.42;2.15;;;25.30;99.90;;;27.47;46.60;99356.22;5005034;28;129988;-75
2022/07/05 08:33:40;;;;;;;2.45;1.60;;;25.70;99.90;;;27.56;42.55;99362.00;5001432;28;118817;-74
2022/07/05 08:36:09;;;;;;;3.97;1.90;;;25.70;81.80;;;27.42;42.08;99348.38;5001450;28;115241;-74
2022/07/05 08:38:38;;;;;;;3.30;1.90;;;25.60;83.70;;;27.13;40.99;99364.84;5000589;28;130691;-75
2022/07/05 08:41:11;;;;;;;2.95;1.85;;;25.50;60.90;;;26.25;42.28;99358.44;5003666;28;129482;-78
2022/07/05 08:43:43;;;;;;;2.47;2.00;;;25.20;55.00;;;26.68;42.00;99357.75;5004652;28;118759;-73
2022/07/05 08:46:12;;;;;;;3.70;1.88;;;25.10;73.10;;;26.63;43.56;99369.31;5003347;28;115494;-73
2022/07/05 08:48:43;;;;;;;3.53;2.15;;;25.30;83.70;;;26.22;44.30;99356.50;5003825;28;130158;-75
2022/07/05 08:51:14;;;;;;;4.70;1.80;;;25.10;91.80;;;26.33;44.29;99359.88;5002386;28;129716;-74
2022/07/05 08:53:44;;;;;;;4.40;2.28;;;25.30;84.80;;;26.51;46.55;99363.16;5006048;28;118160;-75
2022/07/05 08:56:14;;;;;;;4.32;2.15;;;25.50;98.70;;;26.67;45.42;99354.16;5004301;28;115532;-75
2022/07/05 08:58:45;;;;;;;5.45;2.65;;;25.50;96.30;;;27.20;45.64;99351.56;5039432;27;129524;-75
2022/07/05 09:01:15;;;;;;;3.28;2.08;;;25.80;99.80;;;27.28;43.80;99363.38;5022120;28;130224;-74
2022/07/05 09:03:47;;;;;;;3.60;2.10;;;25.80;84.20;;;26.94;43.71;99356.06;5025791;28;118368;-75
2022/07/05 09:06:19;;;;;;;3.05;2.10;;;25.60;86.20;;;26.90;44.16;99356.13;5039711;27;114865;-76
2022/07/05 09:08:48;;;;;;;3.75;2.03;;;25.60;90.10;;;27.49;42.60;99351.03;5020707;28;129798;-77
2022/07/05 09:11:18;;;;;;;3.25;2.00;;;26.10;63.30;;;27.32;40.71;99352.19;5004026;28;130111;-76
2022/07/05 09:13:51;;;;;;;5.35;2.20;;;26.00;42.40;;;27.55;41.37;99349.31;5005704;28;118244;-75
2022/07/05 09:16:20;;;;;;;6.13;2.20;;;26.10;51.30;;;28.13;41.71;99353.63;5018072;28;115331;-77
2022/07/05 09:18:50;;;;;;;4.90;2.20;;;26.30;51.50;;;28.28;40.49;99349.25;5023602;28;129966;-75
2022/07/05 09:21:22;;;;;;;4.60;2.00;;;25.60;66.10;;;28.33;41.60;99350.75;5022002;28;129903;-75
2022/07/05 09:23:59;;;;;;;3.70;2.05;;;25.90;78.90;;;28.54;40.79;99363.34;5024660;28;118672;-77
2022/07/05 09:26:34;;;;;;;6.93;2.17;;;26.50;62.40;;;28.78;39.75;99365.97;5025918;28;113926;-76
2022/07/05 09:29:06;;;;;;;6.43;1.90;;;26.60;44.70;;;28.41;40.54;99359.72;5024693;28;129494;-75
2022/07/05 09:31:36;;;;;;;3.25;1.67;;;26.20;54.50;;;27.60;39.87;99357.16;5023539;28;129239;-73
2022/07/05 09:34:06;;;;;;;4.28;2.00;;;25.90;41.70;;;27.05;40.59;99353.06;5019073;28;118531;-75
2022/07/05 09:36:54;;;;;;;3.78;1.77;;;25.80;42.20;;;26.85;40.99;99361.44;5051117;27;115525;-72
2022/07/05 09:39:40;;;;;;;3.55;1.80;;;25.80;31.30;;;26.76;42.41;99361.19;5012207;28;130499;-79
2022/07/05 09:42:17;;;;;;;3.03;1.80;;;25.80;45.90;;;27.22;40.86;99354.75;5037127;27;128883;-76
2022/07/05 09:44:49;;;;;;;20.17;1.90;;;26.20;21.80;;;26.84;39.01;99357.84;5021039;28;118501;-73
2022/07/05 09:47:20;;;;;;;2.90;1.75;;;25.90;11.50;;;27.33;39.39;99362.09;5023525;28;115259;-75
2022/07/05 09:49:51;;;;;;;4.40;1.77;;;26.20;12.70;;;27.26;39.27;99355.44;5009575;27;129834;-75
2022/07/05 09:52:31;;;;;;;5.18;1.90;;;26.20;12.00;;;28.07;39.37;99363.72;5021733;28;130060;-72
2022/07/05 09:55:06;;;;;;;3.42;1.80;;;26.70;18.00;;;28.37;37.48;99361.81;5022077;28;118786;-71
2022/07/05 09:57:36;;;;;;;2.63;1.60;;;26.70;2.80;;;28.12;39.15;99363.97;5023235;28;116043;-74
2022/07/05 10:00:09;;;;;;;4.00;1.70;;;26.90;12.80;;;27.94;40.57;99355.19;5022666;28;129584;-74
2022/07/05 10:02:40;;;;;;;3.28;2.00;;;26.50;31.90;;;27.56;40.36;99369.59;5022456;28;129391;-77
2022/07/05 10:05:13;;;;;;;3.20;1.70;;;26.30;22.50;;;27.51;41.15;99365.31;5025365;28;117921;-74
2022/07/05 10:07:45;;;;;;;2.85;1.70;;;26.40;31.30;;;27.74;39.50;99367.22;5023333;28;115344;-74
2022/07/05 10:10:16;;;;;;;2.35;1.70;;;26.70;14.50;;;27.56;39.26;99367.59;5004412;28;129315;-79
2022/07/05 10:12:47;;;;;;;3.45;1.90;;;26.40;10.50;;;27.52;40.24;99372.47;5002747;28;130019;-75
2022/07/05 10:15:22;;;;;;;2.53;1.85;;;26.30;17.00;;;27.24;41.35;99382.94;5004725;28;118470;-75
2022/07/05 10:17:58;;;;;;;2.90;1.90;;;26.20;28.10;;;27.64;40.67;99375.81;5021444;28;113777;-71
2022/07/05 10:20:35;;;;;;;3.70;1.73;;;26.30;23.00;;;28.34;39.79;99380.19;5019906;28;129053;-72
2022/07/05 10:23:06;;;;;;;3.53;2.00;;;26.60;23.40;;;28.63;39.54;99371.91;5002530;28;129667;-73
2022/07/05 10:25:37;;;;;;;3.25;2.00;;;26.80;25.30;;;28.37;39.29;99368.16;5021811;28;117749;-74
2022/07/05 10:28:07;;;;;;;3.80;2.03;;;26.60;23.80;;;28.38;39.77;99371.75;5003210;28;115053;-77
2022/07/05 10:30:38;;;;;;;3.38;2.10;;;26.80;24.60;;;28.30;39.94;99362.78;5002573;28;130680;-76